Time;durP1;ratioP1;P1;durP2;ratioP2;P2;SDS_P1;SDS_P2;PMS_P1;PMS_P2;Temp;Humidity;BMP_temperature;BMP_pressure;BME280_temperature;BME280_humidity;BME280_pressure;Samples;Min_cycle;Max_cycle;Signal;HPM_P1;HPM_P2
2022/11/22 00:00:40;;;;;;;18.90;15.93;;;1.80;99.90;;;;;;5035485;28;20233;-82
2022/11/22 00:03:08;;;;;;;17.55;14.52;;;1.80;99.90;;;;;;5035289;28;20217;-77
2022/11/22 00:05:37;;;;;;;21.20;16.25;;;1.80;99.90;;;;;;5036113;28;20229;-76
2022/11/22 00:08:05;;;;;;;17.23;15.00;;;1.80;99.90;;;;;;5036140;28;20225;-76
2022/11/22 00:10:32;;;;;;;18.45;14.70;;;1.80;99.90;;;;;;5037417;28;20229;-77
2022/11/22 00:13:00;;;;;;;17.90;14.65;;;1.70;99.90;;;;;;5056065;28;20236;-76
2022/11/22 00:15:28;;;;;;;17.92;14.20;;;1.70;99.90;;;;;;5055546;28;20628;-77
2022/11/22 00:17:55;;;;;;;18.90;14.95;;;1.70;99.90;;;;;;5056750;28;20253;-81
2022/11/22 00:20:22;;;;;;;20.25;15.65;;;1.70;99.90;;;;;;5055657;28;20232;-81
2022/11/22 00:22:51;;;;;;;15.55;13.60;;;1.80;99.90;;;;;;5057051;28;20213;-81
2022/11/22 00:25:17;;;;;;;20.15;14.60;;;1.80;99.90;;;;;;5056200;28;20232;-81
2022/11/22 00:27:45;;;;;;;18.58;15.55;;;1.80;99.90;;;;;;5055910;28;20221;-76
2022/11/22 00:30:12;;;;;;;17.73;13.93;;;1.80;99.90;;;;;;5054805;28;20225;-78
2022/11/22 00:32:39;;;;;;;17.15;14.85;;;1.80;99.90;;;;;;5055806;28;20220;-77
2022/11/22 00:35:07;;;;;;;16.95;14.43;;;1.80;99.90;;;;;;5056208;28;20635;-82
2022/11/22 00:37:34;;;;;;;22.98;16.17;;;1.80;99.90;;;;;;5055275;28;20220;-82
2022/11/22 00:40:02;;;;;;;20.67;15.15;;;1.80;99.90;;;;;;5054383;28;20294;-77
2022/11/22 00:42:29;;;;;;;18.63;15.63;;;1.80;99.90;;;;;;5053866;28;20293;-77
2022/11/22 00:44:56;;;;;;;19.10;14.43;;;1.80;99.90;;;;;;5055374;28;20225;-77
2022/11/22 00:47:24;;;;;;;20.65;16.20;;;1.70;99.90;;;;;;5054929;28;20232;-81
2022/11/22 00:49:51;;;;;;;19.02;15.65;;;1.70;99.90;;;;;;5055843;28;20232;-77
2022/11/22 00:52:20;;;;;;;21.90;17.10;;;1.60;99.90;;;;;;5055226;28;20690;-77
2022/11/22 00:54:47;;;;;;;21.05;16.48;;;1.50;99.90;;;;;;5055099;28;20235;-82
2022/11/22 00:57:15;;;;;;;22.92;17.70;;;1.40;99.90;;;;;;5054824;28;20237;-83
2022/11/22 00:59:42;;;;;;;22.38;16.58;;;1.30;99.90;;;;;;5054866;28;20690;-77
2022/11/22 01:02:09;;;;;;;19.77;15.85;;;1.40;99.90;;;;;;5055123;28;20282;-81
2022/11/22 01:04:36;;;;;;;20.55;16.17;;;1.40;99.90;;;;;;5054463;28;20253;-82
2022/11/22 01:07:04;;;;;;;22.10;15.57;;;1.30;99.90;;;;;;5055195;28;20581;-76
2022/11/22 01:09:31;;;;;;;19.48;16.70;;;1.30;99.90;;;;;;5054741;28;20370;-81
2022/11/22 01:11:58;;;;;;;24.50;17.40;;;1.40;99.90;;;;;;5054970;28;20221;-77
2022/11/22 01:14:26;;;;;;;22.17;17.80;;;1.40;99.90;;;;;;5054331;28;20275;-79
2022/11/22 01:16:53;;;;;;;23.90;18.42;;;1.40;99.90;;;;;;5054585;28;20216;-77
2022/11/22 01:19:20;;;;;;;21.23;15.90;;;1.40;99.90;;;;;;5053327;28;20229;-77
2022/11/22 01:21:47;;;;;;;25.65;17.85;;;1.40;99.90;;;;;;5054770;28;20220;-82
2022/11/22 01:24:14;;;;;;;27.65;17.23;;;1.30;99.90;;;;;;5054718;28;20669;-82
2022/11/22 01:26:41;;;;;;;19.83;16.20;;;1.20;99.90;;;;;;5054232;28;20259;-83
2022/11/22 01:29:08;;;;;;;21.67;15.52;;;1.10;99.90;;;;;;5054805;28;20252;-83
2022/11/22 01:31:36;;;;;;;25.13;16.65;;;1.10;99.90;;;;;;5054142;28;20220;-79
2022/11/22 01:34:05;;;;;;;23.33;17.27;;;1.00;99.90;;;;;;5054084;28;20315;-78
2022/11/22 01:36:32;;;;;;;22.13;17.77;;;1.00;99.90;;;;;;5053630;28;20231;-78
2022/11/22 01:38:59;;;;;;;24.27;18.60;;;1.00;99.90;;;;;;5054458;28;20241;-78
2022/11/22 01:41:27;;;;;;;23.02;17.58;;;1.00;99.90;;;;;;5053836;28;20224;-83
2022/11/22 01:43:56;;;;;;;21.40;16.38;;;1.00;99.90;;;;;;5054776;28;20229;-83
2022/11/22 01:46:33;;;;;;;22.55;17.08;;;1.10;99.90;;;;;;5054220;28;20236;-82
2022/11/22 01:49:04;;;;;;;23.33;17.10;;;1.10;99.90;;;;;;5054741;28;20224;-83
2022/11/22 01:51:37;;;;;;;24.20;17.45;;;1.00;99.90;;;;;;5054415;28;20282;-84
2022/11/22 01:54:08;;;;;;;24.15;17.95;;;1.00;99.90;;;;;;5054165;28;20221;-78
2022/11/22 01:56:37;;;;;;;21.33;16.80;;;1.10;99.90;;;;;;5053930;28;20239;-79
2022/11/22 01:59:08;;;;;;;23.27;18.05;;;1.10;99.90;;;;;;5053325;28;20220;-79
2022/11/22 02:01:36;;;;;;;23.65;18.65;;;1.10;99.90;;;;;;5053885;28;20220;-83
2022/11/22 02:04:08;;;;;;;24.48;18.00;;;1.20;99.90;;;;;;5054332;28;20224;-79
2022/11/22 02:06:39;;;;;;;26.10;18.63;;;1.20;99.90;;;;;;5053577;28;20276;-79
2022/11/22 02:09:11;;;;;;;21.42;16.67;;;1.20;99.90;;;;;;5054222;28;20603;-79
2022/11/22 02:11:42;;;;;;;19.63;16.00;;;1.20;99.90;;;;;;5053121;28;20557;-78
2022/11/22 02:14:10;;;;;;;22.05;16.08;;;1.20;99.90;;;;;;5054060;28;20617;-78
2022/11/22 02:16:39;;;;;;;25.88;19.35;;;1.30;99.90;;;;;;5052901;28;20224;-79
2022/11/22 02:19:13;;;;;;;20.65;16.92;;;1.20;99.90;;;;;;5053777;28;20229;-78
2022/11/22 02:21:40;;;;;;;24.50;17.45;;;1.20;99.90;;;;;;5053234;28;20599;-78
2022/11/22 02:24:13;;;;;;;23.40;17.27;;;1.10;99.90;;;;;;5053372;28;20255;-78
2022/11/22 02:26:41;;;;;;;24.42;17.23;;;1.10;99.90;;;;;;5053840;28;20258;-83
2022/11/22 02:29:09;;;;;;;26.20;17.58;;;1.10;99.90;;;;;;5053890;28;20255;-78
2022/11/22 02:31:39;;;;;;;24.48;17.88;;;1.20;99.90;;;;;;5052904;28;20569;-83
2022/11/22 02:34:07;;;;;;;22.67;16.50;;;1.20;99.90;;;;;;5053506;28;20220;-82
2022/11/22 02:36:41;;;;;;;21.90;17.02;;;1.20;99.90;;;;;;5053232;28;20315;-78
2022/11/22 02:39:11;;;;;;;23.92;16.33;;;1.20;99.90;;;;;;5053737;28;20228;-83
2022/11/22 02:41:39;;;;;;;23.70;17.60;;;1.30;99.90;;;;;;5053237;28;20293;-83
2022/11/22 02:44:09;;;;;;;26.50;18.02;;;1.30;99.90;;;;;;5053684;28;20255;-78
2022/11/22 02:46:45;;;;;;;20.35;15.25;;;1.30;99.90;;;;;;5052398;28;20224;-78
2022/11/22 02:49:12;;;;;;;21.30;15.98;;;1.40;99.90;;;;;;5053413;28;20302;-78
2022/11/22 02:51:39;;;;;;;27.30;16.20;;;1.40;99.90;;;;;;5053258;28;20674;-83
2022/11/22 02:54:06;;;;;;;22.98;17.05;;;1.50;99.90;;;;;;5053735;28;20251;-83
2022/11/22 02:56:33;;;;;;;22.27;17.75;;;1.50;99.90;;;;;;5052967;28;20729;-78
2022/11/22 02:59:00;;;;;;;22.45;15.98;;;1.50;99.90;;;;;;5053266;28;20835;-78
2022/11/22 03:01:29;;;;;;;21.60;17.50;;;1.60;99.90;;;;;;5053557;28;20223;-83
2022/11/22 03:03:56;;;;;;;20.55;15.77;;;1.50;99.90;;;;;;5053281;28;20246;-83
2022/11/22 03:06:23;;;;;;;22.25;16.92;;;1.60;99.90;;;;;;5056007;28;20232;-78
2022/11/22 03:08:56;;;;;;;19.55;15.90;;;1.50;99.90;;;;;;5056286;28;20658;-83
2022/11/22 03:11:24;;;;;;;18.65;16.00;;;1.50;99.90;;;;;;5057026;28;20800;-78
2022/11/22 03:13:51;;;;;;;22.48;16.65;;;1.50;99.90;;;;;;5056344;28;20528;-82
2022/11/22 03:16:18;;;;;;;21.85;16.27;;;1.50;99.90;;;;;;5057526;28;20224;-83
2022/11/22 03:18:46;;;;;;;23.17;17.27;;;1.50;99.90;;;;;;5056748;28;20232;-82
2022/11/22 03:21:14;;;;;;;23.52;17.30;;;1.60;99.90;;;;;;5057590;28;20658;-78
2022/11/22 03:23:40;;;;;;;27.58;17.15;;;1.60;99.90;;;;;;5056961;28;20550;-82
2022/11/22 03:26:10;;;;;;;19.50;17.38;;;1.60;99.90;;;;;;5057064;28;20239;-79
2022/11/22 03:28:37;;;;;;;23.77;17.63;;;1.60;99.90;;;;;;5056913;28;20294;-82
2022/11/22 03:31:06;;;;;;;24.05;17.95;;;1.60;99.90;;;;;;5057109;28;20240;-78
2022/11/22 03:33:33;;;;;;;19.90;16.60;;;1.60;99.90;;;;;;5055479;28;20229;-79
2022/11/22 03:36:02;;;;;;;22.90;19.95;;;1.60;99.90;;;;;;5056712;28;20221;-78
2022/11/22 03:38:29;;;;;;;24.27;17.48;;;1.70;99.90;;;;;;5056629;28;20251;-78
2022/11/22 03:40:56;;;;;;;22.83;16.20;;;1.70;99.90;;;;;;5056005;28;20343;-78
2022/11/22 03:43:23;;;;;;;28.38;18.52;;;1.70;99.90;;;;;;5057034;28;20229;-78
2022/11/22 03:45:51;;;;;;;26.45;19.42;;;1.60;99.90;;;;;;5056229;28;20616;-78
2022/11/22 03:48:18;;;;;;;24.15;17.50;;;1.70;99.90;;;;;;5055812;28;20221;-79
2022/11/22 03:50:45;;;;;;;21.63;16.13;;;1.70;99.90;;;;;;5056118;28;20232;-79
2022/11/22 03:53:14;;;;;;;21.80;17.10;;;1.70;99.90;;;;;;5056386;28;20266;-78
2022/11/22 03:55:41;;;;;;;24.77;17.10;;;1.60;99.90;;;;;;5056351;28;20285;-82
2022/11/22 03:58:08;;;;;;;24.10;17.48;;;1.60;99.90;;;;;;5058051;28;20278;-78
2022/11/22 04:00:35;;;;;;;25.52;16.73;;;1.50;99.90;;;;;;5055628;28;20674;-82
2022/11/22 04:03:03;;;;;;;26.58;16.77;;;1.60;99.90;;;;;;5056580;28;20293;-83
2022/11/22 04:05:30;;;;;;;25.10;18.92;;;1.60;99.90;;;;;;5056390;28;20700;-78
2022/11/22 04:07:57;;;;;;;25.23;18.33;;;1.60;99.90;;;;;;5055348;28;20233;-78
2022/11/22 04:10:26;;;;;;;24.02;18.88;;;1.50;99.90;;;;;;5055584;28;20229;-78
2022/11/22 04:12:57;;;;;;;30.67;19.10;;;1.50;99.90;;;;;;5055041;28;20290;-82
2022/11/22 04:15:24;;;;;;;26.00;17.50;;;1.40;99.90;;;;;;5056479;28;20331;-83
2022/11/22 04:17:51;;;;;;;26.90;17.08;;;1.40;99.90;;;;;;5053030;28;20294;-78
2022/11/22 04:23:07;;;;;;;27.85;18.08;;;1.50;99.90;;;;;;5055066;28;20239;-76
2022/11/22 04:25:37;;;;;;;25.10;18.05;;;1.40;99.90;;;;;;5054083;28;20217;-76
2022/11/22 04:28:07;;;;;;;25.15;18.38;;;1.40;99.90;;;;;;5054839;28;20243;-81
2022/11/22 04:33:20;;;;;;;26.63;20.63;;;1.60;99.90;;;;;;5056354;28;20565;-81
2022/11/22 04:35:48;;;;;;;29.58;21.42;;;1.60;99.90;;;;;;5054230;28;20234;-81
2022/11/22 04:38:17;;;;;;;27.25;19.63;;;1.50;99.90;;;;;;5055863;28;20225;-81
2022/11/22 04:40:46;;;;;;;29.10;19.15;;;1.50;99.90;;;;;;5044497;28;20235;-82
2022/11/22 04:46:03;;;;;;;31.77;20.25;;;1.60;99.90;;;;;;5055071;28;20553;-77
2022/11/22 04:48:30;;;;;;;25.08;18.40;;;1.70;99.90;;;;;;5054026;28;20217;-77
2022/11/22 04:53:43;;;;;;;29.20;20.05;;;1.70;99.90;;;;;;5054664;28;20693;-81
2022/11/22 04:56:12;;;;;;;30.38;20.30;;;1.80;99.90;;;;;;5055063;28;20223;-82
2022/11/22 04:58:39;;;;;;;28.42;19.17;;;1.70;99.90;;;;;;5054321;28;20565;-77
2022/11/22 05:01:06;;;;;;;27.25;19.23;;;1.70;99.90;;;;;;5054960;28;20332;-77
2022/11/22 05:03:33;;;;;;;35.03;19.75;;;1.50;99.90;;;;;;5054008;28;20290;-76
2022/11/22 05:06:02;;;;;;;28.85;19.55;;;1.40;99.90;;;;;;5054702;28;20255;-77
2022/11/22 05:08:29;;;;;;;27.23;18.50;;;1.40;99.90;;;;;;5053687;28;20307;-82
2022/11/22 05:10:56;;;;;;;34.50;20.70;;;1.50;99.90;;;;;;5056092;28;20243;-82
2022/11/22 05:13:29;;;;;;;31.08;20.00;;;1.50;99.90;;;;;;5053970;28;20580;-77
2022/11/22 05:15:57;;;;;;;35.00;23.38;;;1.50;99.90;;;;;;5054337;28;20228;-77
2022/11/22 05:18:26;;;;;;;32.22;20.92;;;1.40;99.90;;;;;;5053559;28;20236;-77
2022/11/22 05:20:53;;;;;;;31.20;21.60;;;1.40;99.90;;;;;;5054497;28;20637;-77
2022/11/22 05:26:06;;;;;;;34.45;20.88;;;1.40;99.90;;;;;;5054706;28;20235;-77
2022/11/22 05:28:37;;;;;;;36.28;22.92;;;1.40;99.90;;;;;;5053781;28;20624;-77
2022/11/22 05:31:08;;;;;;;33.40;20.52;;;1.40;99.90;;;;;;5054273;28;20255;-77
2022/11/22 05:33:38;;;;;;;32.35;19.88;;;1.30;99.90;;;;;;5053686;28;20256;-78
2022/11/22 05:36:06;;;;;;;35.83;21.75;;;1.30;99.90;;;;;;5054077;28;20229;-76
2022/11/22 05:38:34;;;;;;;35.55;24.52;;;1.30;99.90;;;;;;5053475;28;20225;-78
2022/11/22 05:41:01;;;;;;;36.88;21.83;;;1.30;99.90;;;;;;5054118;28;20669;-78
2022/11/22 05:43:28;;;;;;;32.90;21.83;;;1.40;99.90;;;;;;5053718;28;20686;-77
2022/11/22 05:46:12;;;;;;;30.95;22.83;;;1.40;99.90;;;;;;5053837;28;20228;-79
2022/11/22 05:48:41;;;;;;;30.40;19.77;;;1.40;99.90;;;;;;5053280;28;20220;-77
2022/11/22 05:51:11;;;;;;;33.00;23.10;;;1.50;99.90;;;;;;5053700;28;20240;-78
2022/11/22 05:53:38;;;;;;;35.42;20.70;;;1.50;99.90;;;;;;5054392;28;20228;-78
2022/11/22 05:56:07;;;;;;;29.42;21.05;;;1.50;99.90;;;;;;5055296;28;20225;-78
2022/11/22 05:58:35;;;;;;;32.03;20.45;;;1.50;99.90;;;;;;5056011;28;20232;-82
2022/11/22 06:01:17;;;;;;;32.25;20.23;;;1.50;99.90;;;;;;5055590;28;20217;-82
2022/11/22 06:03:44;;;;;;;31.30;20.80;;;1.50;99.90;;;;;;5055256;28;20248;-82
2022/11/22 06:06:12;;;;;;;35.90;21.33;;;1.50;99.90;;;;;;5055920;28;20224;-82
2022/11/22 06:08:42;;;;;;;33.58;21.27;;;1.50;99.90;;;;;;5055414;28;20220;-78
2022/11/22 06:11:10;;;;;;;30.67;21.00;;;1.50;99.90;;;;;;5055226;28;20256;-83
2022/11/22 06:13:39;;;;;;;30.02;19.73;;;1.50;99.90;;;;;;5053907;28;20229;-78
2022/11/22 06:16:08;;;;;;;33.80;20.75;;;1.50;99.90;;;;;;5059994;28;20278;-82
2022/11/22 06:18:37;;;;;;;27.15;19.00;;;1.50;99.90;;;;;;5057558;28;20350;-82
2022/11/22 06:21:06;;;;;;;32.97;21.38;;;1.50;99.90;;;;;;5055596;28;20287;-82
2022/11/22 06:23:35;;;;;;;32.63;20.23;;;1.50;99.90;;;;;;5053813;28;20224;-81
2022/11/22 06:26:06;;;;;;;33.53;21.48;;;1.60;99.90;;;;;;5053854;28;20221;-82
2022/11/22 06:28:35;;;;;;;29.95;20.25;;;1.50;99.90;;;;;;5044068;28;20678;-82
2022/11/22 06:31:03;;;;;;;40.80;22.77;;;1.50;99.90;;;;;;5053868;28;20220;-83
2022/11/22 06:33:30;;;;;;;32.97;20.30;;;1.50;99.90;;;;;;5053514;28;20240;-82
2022/11/22 06:36:04;;;;;;;31.88;20.73;;;1.50;99.90;;;;;;5053420;28;20220;-83
2022/11/22 06:38:31;;;;;;;31.10;19.75;;;1.60;99.90;;;;;;5052687;28;20331;-82
2022/11/22 06:41:00;;;;;;;30.88;21.05;;;1.60;99.90;;;;;;5052773;28;20235;-83
2022/11/22 06:43:28;;;;;;;34.95;19.73;;;1.60;99.90;;;;;;5053232;28;20237;-83
2022/11/22 06:45:56;;;;;;;30.45;20.48;;;1.70;99.90;;;;;;5053293;28;20225;-83
2022/11/22 06:48:23;;;;;;;35.10;21.65;;;1.60;99.90;;;;;;5043140;28;20232;-82
2022/11/22 06:50:58;;;;;;;36.70;20.65;;;1.50;99.90;;;;;;5031950;28;20239;-82
2022/11/22 06:53:27;;;;;;;38.20;21.33;;;1.60;99.90;;;;;;5052631;28;20242;-83
2022/11/22 06:56:00;;;;;;;35.42;22.02;;;1.50;99.90;;;;;;5042698;28;20266;-82
2022/11/22 06:58:27;;;;;;;30.17;20.02;;;1.60;99.90;;;;;;5052336;28;20255;-83
2022/11/22 07:01:00;;;;;;;34.67;20.80;;;1.70;99.90;;;;;;5052605;28;20250;-82
2022/11/22 07:03:27;;;;;;;34.78;20.75;;;1.70;99.90;;;;;;5052829;28;20225;-83
2022/11/22 07:05:55;;;;;;;31.15;20.13;;;1.80;99.90;;;;;;5051934;28;20228;-78
2022/11/22 07:08:22;;;;;;;33.17;19.83;;;1.90;99.90;;;;;;5052718;28;20256;-79
2022/11/22 07:10:50;;;;;;;30.38;19.98;;;1.90;99.90;;;;;;5052229;28;20224;-78
2022/11/22 07:13:18;;;;;;;37.70;22.88;;;2.00;99.90;;;;;;5052911;28;20228;-83
2022/11/22 07:15:54;;;;;;;32.33;20.45;;;2.00;99.90;;;;;;5053173;28;20228;-82
2022/11/22 07:18:21;;;;;;;32.25;22.25;;;2.10;99.90;;;;;;5052565;28;20234;-78
2022/11/22 07:20:48;;;;;;;35.33;21.90;;;2.00;99.90;;;;;;5052914;28;20232;-77
2022/11/22 07:23:15;;;;;;;29.73;20.45;;;2.00;99.90;;;;;;5052036;28;20217;-82
2022/11/22 07:25:45;;;;;;;32.72;22.10;;;2.00;99.90;;;;;;5053247;28;20221;-83
2022/11/22 07:28:13;;;;;;;32.05;20.58;;;2.10;99.90;;;;;;5050094;28;20308;-82
2022/11/22 07:30:41;;;;;;;30.83;20.33;;;2.10;99.90;;;;;;5053443;28;20220;-82
2022/11/22 07:33:08;;;;;;;28.73;19.95;;;2.20;99.90;;;;;;5052002;28;20228;-82
2022/11/22 07:35:35;;;;;;;27.17;17.70;;;2.10;99.90;;;;;;5052210;28;20240;-82
2022/11/22 07:38:03;;;;;;;27.77;20.45;;;2.00;99.90;;;;;;5052353;28;20220;-83
2022/11/22 07:40:30;;;;;;;31.42;19.38;;;1.90;99.90;;;;;;5052358;28;20237;-77
2022/11/22 07:42:57;;;;;;;34.80;21.58;;;2.00;99.90;;;;;;5052444;28;20220;-82
2022/11/22 07:45:26;;;;;;;27.70;19.38;;;1.90;99.90;;;;;;5051767;28;20243;-82
2022/11/22 07:47:53;;;;;;;27.55;19.15;;;1.80;99.90;;;;;;5052611;28;20221;-82
2022/11/22 07:50:23;;;;;;;33.55;22.40;;;1.80;99.90;;;;;;5051163;28;20248;-82
2022/11/22 07:52:55;;;;;;;35.33;21.77;;;1.80;99.90;;;;;;5054586;28;20220;-82
2022/11/22 07:55:24;;;;;;;34.55;22.08;;;1.80;99.90;;;;;;5055362;28;20213;-77
2022/11/22 07:57:51;;;;;;;35.55;21.15;;;1.80;99.90;;;;;;5056178;28;20681;-77
2022/11/22 08:00:18;;;;;;;33.58;21.45;;;1.80;99.90;;;;;;5055603;28;20248;-77
2022/11/22 08:02:47;;;;;;;34.13;21.10;;;1.80;99.90;;;;;;5056023;28;20224;-77
2022/11/22 08:05:15;;;;;;;32.35;20.23;;;1.80;99.90;;;;;;5055094;28;20391;-78
2022/11/22 08:07:46;;;;;;;31.90;20.75;;;1.90;99.90;;;;;;5056367;28;20686;-83
2022/11/22 08:10:13;;;;;;;33.35;21.90;;;2.00;99.90;;;;;;5055594;28;20323;-81
2022/11/22 08:12:42;;;;;;;35.70;20.42;;;2.10;99.90;;;;;;5057070;28;20229;-83
2022/11/22 08:15:11;;;;;;;25.80;19.27;;;2.10;99.90;;;;;;5056350;28;20236;-78
2022/11/22 08:17:38;;;;;;;39.25;21.65;;;2.10;99.90;;;;;;5059897;28;20224;-82
2022/11/22 08:20:09;;;;;;;29.20;19.05;;;2.10;99.90;;;;;;5063102;28;20315;-83
2022/11/22 08:22:36;;;;;;;32.28;21.35;;;2.00;99.90;;;;;;5062453;28;20224;-77
2022/11/22 08:25:21;;;;;;;33.05;19.58;;;2.00;99.90;;;;;;5056421;28;20244;-77
2022/11/22 08:27:48;;;;;;;29.73;20.50;;;2.00;99.90;;;;;;5054007;28;20220;-78
2022/11/22 08:30:15;;;;;;;33.00;22.15;;;2.10;99.90;;;;;;5055355;28;20232;-82
2022/11/22 08:32:42;;;;;;;34.92;23.27;;;2.10;99.90;;;;;;5055347;28;20229;-77
2022/11/22 08:35:11;;;;;;;34.08;20.55;;;2.20;99.90;;;;;;5054654;28;20232;-77
2022/11/22 08:37:38;;;;;;;32.80;22.00;;;2.20;99.90;;;;;;5055249;28;20224;-83
2022/11/22 08:40:09;;;;;;;35.20;22.15;;;2.30;99.90;;;;;;5044218;28;20291;-81
2022/11/22 08:42:36;;;;;;;43.05;22.60;;;2.20;99.90;;;;;;5055348;28;20290;-81
2022/11/22 08:45:03;;;;;;;37.10;22.55;;;2.20;99.90;;;;;;5055118;28;20220;-82
2022/11/22 08:47:30;;;;;;;39.00;24.35;;;2.30;99.90;;;;;;5055350;28;20677;-82
2022/11/22 08:49:58;;;;;;;38.17;24.85;;;2.40;99.90;;;;;;5044193;28;20229;-82
2022/11/22 08:52:26;;;;;;;41.75;25.85;;;2.40;99.90;;;;;;5054689;28;20710;-77
2022/11/22 08:54:53;;;;;;;36.47;23.40;;;2.30;99.90;;;;;;5044974;28;20225;-83
2022/11/22 08:57:20;;;;;;;38.95;21.58;;;2.30;99.90;;;;;;5054034;28;20228;-78
2022/11/22 08:59:47;;;;;;;33.08;21.67;;;2.10;99.90;;;;;;5054953;28;20251;-77
2022/11/22 09:02:14;;;;;;;37.90;25.67;;;2.20;99.90;;;;;;5054708;28;20248;-77
2022/11/22 09:04:41;;;;;;;35.30;22.45;;;2.10;99.90;;;;;;5054674;28;20303;-77
2022/11/22 09:07:09;;;;;;;39.45;24.20;;;2.10;99.90;;;;;;5053520;28;20618;-77
2022/11/22 09:09:37;;;;;;;35.70;22.55;;;2.10;99.90;;;;;;5053972;28;20221;-77
2022/11/22 09:12:05;;;;;;;36.03;22.52;;;2.10;99.90;;;;;;5053898;28;20220;-77
2022/11/22 09:14:39;;;;;;;37.80;22.38;;;2.10;99.90;;;;;;5053823;28;20221;-76
2022/11/22 09:17:08;;;;;;;39.45;22.48;;;2.20;99.90;;;;;;5053995;28;20224;-77
2022/11/22 09:19:35;;;;;;;34.92;23.38;;;2.20;99.90;;;;;;5054386;28;20290;-77
2022/11/22 09:22:02;;;;;;;37.80;23.92;;;2.20;99.90;;;;;;5053633;28;20216;-77
2022/11/22 09:24:29;;;;;;;40.35;23.83;;;2.30;99.90;;;;;;5054232;28;20235;-77
2022/11/22 09:26:58;;;;;;;38.10;22.60;;;2.30;99.90;;;;;;5053698;28;20224;-77
2022/11/22 09:29:26;;;;;;;39.42;22.15;;;2.30;99.90;;;;;;5053884;28;20232;-77
2022/11/22 09:31:54;;;;;;;41.75;24.75;;;2.30;99.90;;;;;;5054150;28;20221;-77
2022/11/22 09:34:21;;;;;;;40.50;23.40;;;2.30;99.90;;;;;;5053765;28;20228;-77
2022/11/22 09:37:10;;;;;;;39.67;23.77;;;2.30;99.90;;;;;;5053766;28;20224;-76
2022/11/22 09:39:51;;;;;;;43.78;23.92;;;2.30;99.90;;;;;;5042116;28;20256;-77
2022/11/22 09:42:51;;;;;;;45.90;24.70;;;2.30;99.90;;;;;;5041125;28;20220;-77
2022/11/22 09:45:42;;;;;;;40.45;22.63;;;2.30;99.90;;;;;;5053533;28;20221;-82
2022/11/22 09:48:27;;;;;;;44.17;24.85;;;2.20;99.90;;;;;;5053889;28;20220;-81
2022/11/22 09:51:03;;;;;;;41.58;23.33;;;2.10;99.90;;;;;;5053731;28;20228;-78
2022/11/22 09:53:35;;;;;;;48.83;27.02;;;2.20;99.90;;;;;;5055338;28;20220;-82
2022/11/22 09:56:08;;;;;;;43.05;24.50;;;2.20;99.90;;;;;;5056954;28;20274;-82
2022/11/22 09:58:41;;;;;;;41.30;23.70;;;2.20;99.90;;;;;;5056725;28;20259;-82
2022/11/22 10:01:13;;;;;;;43.80;24.70;;;2.20;99.90;;;;;;5055713;28;20278;-82
2022/11/22 10:03:47;;;;;;;43.92;24.70;;;2.30;99.90;;;;;;5054125;28;20228;-77
2022/11/22 10:06:19;;;;;;;40.33;24.35;;;2.30;99.90;;;;;;5056800;28;20244;-82
2022/11/22 10:08:57;;;;;;;43.75;24.23;;;2.40;99.90;;;;;;5056103;28;20304;-82
2022/11/22 10:11:34;;;;;;;45.03;25.90;;;2.40;99.90;;;;;;5045132;28;20678;-81
2022/11/22 10:14:10;;;;;;;34.00;22.60;;;2.50;99.90;;;;;;5052708;28;20221;-83
2022/11/22 10:16:47;;;;;;;39.47;25.10;;;2.50;99.90;;;;;;5051967;28;20220;-78
2022/11/22 10:19:17;;;;;;;42.83;23.98;;;2.50;99.90;;;;;;5053262;28;20233;-77
2022/11/22 10:21:46;;;;;;;38.10;23.30;;;2.50;99.90;;;;;;5052125;28;20224;-77
2022/11/22 10:24:16;;;;;;;39.53;26.05;;;2.50;99.90;;;;;;5052659;28;20231;-77
2022/11/22 10:26:45;;;;;;;43.47;25.08;;;2.50;99.90;;;;;;5052422;28;20229;-82
2022/11/22 10:29:24;;;;;;;52.97;26.40;;;2.50;99.90;;;;;;5052253;28;20228;-83
2022/11/22 10:31:59;;;;;;;38.30;24.05;;;2.50;99.90;;;;;;5053058;28;20216;-82
2022/11/22 10:34:39;;;;;;;40.35;24.92;;;2.60;99.90;;;;;;5053244;28;20286;-82
2022/11/22 10:37:14;;;;;;;39.85;23.17;;;2.70;99.90;;;;;;5053662;28;20557;-82
2022/11/22 10:40:01;;;;;;;36.75;23.38;;;2.70;99.90;;;;;;5052384;28;20258;-77
2022/11/22 10:42:55;;;;;;;37.47;23.08;;;2.70;99.90;;;;;;5052423;28;20595;-77
2022/11/22 10:45:29;;;;;;;41.28;26.10;;;2.80;99.90;;;;;;5044466;28;20294;-77
2022/11/22 10:48:06;;;;;;;44.08;26.17;;;2.90;99.90;;;;;;5052971;28;20221;-77
2022/11/22 10:50:43;;;;;;;47.17;28.80;;;2.80;99.90;;;;;;5052417;28;20235;-77
2022/11/22 10:53:23;;;;;;;44.20;28.27;;;2.80;99.90;;;;;;5052916;28;20224;-76
2022/11/22 10:55:57;;;;;;;50.90;26.92;;;2.90;99.90;;;;;;5052146;28;20311;-76
2022/11/22 10:58:33;;;;;;;45.42;26.67;;;2.90;99.90;;;;;;5052967;28;20227;-82
2022/11/22 11:01:10;;;;;;;41.67;25.58;;;2.90;99.90;;;;;;5052676;28;20281;-82
2022/11/22 11:03:41;;;;;;;46.97;25.38;;;3.00;99.90;;;;;;5052543;28;20256;-78
2022/11/22 11:06:14;;;;;;;43.05;26.02;;;3.10;99.90;;;;;;5052638;28;20224;-77
2022/11/22 11:08:44;;;;;;;41.75;24.15;;;3.10;99.90;;;;;;5042037;28;20228;-78
2022/11/22 11:11:14;;;;;;;46.92;26.60;;;3.20;99.90;;;;;;5051994;28;20232;-76
2022/11/22 11:13:45;;;;;;;43.08;27.40;;;3.20;99.90;;;;;;5051973;28;20570;-78
2022/11/22 11:16:18;;;;;;;54.50;28.17;;;3.20;99.90;;;;;;5052164;28;20244;-77
2022/11/22 11:18:50;;;;;;;48.03;28.27;;;3.20;99.90;;;;;;5052456;28;20386;-82
2022/11/22 11:21:17;;;;;;;51.88;28.13;;;3.30;99.90;;;;;;5052805;28;20289;-83
2022/11/22 11:23:44;;;;;;;42.75;26.33;;;3.30;99.90;;;;;;5052950;28;20693;-82
2022/11/22 11:26:20;;;;;;;39.35;23.90;;;3.40;99.90;;;;;;5052955;28;20252;-82
2022/11/22 11:28:49;;;;;;;42.08;24.70;;;3.30;99.90;;;;;;5055936;28;20228;-78
2022/11/22 11:31:20;;;;;;;36.45;24.83;;;3.40;99.90;;;;;;5057177;28;20302;-82
2022/11/22 11:33:48;;;;;;;39.88;25.17;;;3.40;99.90;;;;;;5056217;28;20282;-82
2022/11/22 11:36:18;;;;;;;40.13;25.98;;;3.50;99.90;;;;;;5056030;28;20233;-83
2022/11/22 11:38:54;;;;;;;43.00;25.95;;;3.60;99.90;;;;;;5055671;28;20229;-82
2022/11/22 11:41:24;;;;;;;39.78;26.80;;;3.60;99.90;;;;;;5056427;28;20225;-77
2022/11/22 11:43:53;;;;;;;42.75;25.00;;;3.70;99.90;;;;;;5055942;28;20235;-82
2022/11/22 11:46:24;;;;;;;41.90;24.92;;;3.60;99.90;;;;;;5056288;28;20224;-82
2022/11/22 11:48:53;;;;;;;40.15;25.33;;;3.60;99.90;;;;;;5053223;28;20235;-83
2022/11/22 11:51:26;;;;;;;38.92;25.30;;;3.60;99.90;;;;;;5055999;28;20625;-83
2022/11/22 11:54:03;;;;;;;38.83;26.20;;;3.60;99.90;;;;;;5055769;28;20702;-78
2022/11/22 11:56:41;;;;;;;36.75;24.58;;;3.50;99.90;;;;;;5055484;28;20274;-77
2022/11/22 11:59:13;;;;;;;42.70;25.05;;;3.50;99.90;;;;;;5055643;28;20289;-77
2022/11/22 12:01:49;;;;;;;44.10;26.45;;;3.60;99.90;;;;;;5055636;28;20663;-77
2022/11/22 12:04:21;;;;;;;40.42;25.58;;;3.60;99.90;;;;;;5055101;28;20231;-83
2022/11/22 12:07:01;;;;;;;38.05;24.27;;;3.60;99.90;;;;;;5055752;28;20621;-83
2022/11/22 12:09:31;;;;;;;40.80;26.80;;;3.60;99.90;;;;;;5056632;28;20225;-77
2022/11/22 12:12:05;;;;;;;44.58;24.38;;;3.70;99.90;;;;;;5055027;28;20220;-83
2022/11/22 12:14:33;;;;;;;40.85;25.50;;;3.70;99.90;;;;;;5045045;28;20221;-83
2022/11/22 12:17:07;;;;;;;41.03;24.60;;;3.70;99.90;;;;;;5054643;28;20255;-83
2022/11/22 12:19:45;;;;;;;35.42;24.80;;;3.80;99.90;;;;;;5055484;28;20570;-78
2022/11/22 12:22:19;;;;;;;44.22;28.02;;;3.90;99.90;;;;;;5055337;28;20290;-78
2022/11/22 12:24:54;;;;;;;42.38;27.55;;;3.90;99.90;;;;;;5055430;28;20556;-83
2022/11/22 12:27:27;;;;;;;40.95;24.65;;;3.90;99.90;;;;;;5045424;28;20607;-78
2022/11/22 12:29:54;;;;;;;37.95;23.75;;;4.00;99.90;;;;;;5054652;28;20252;-78
2022/11/22 12:32:27;;;;;;;44.03;25.63;;;4.00;99.90;;;;;;5055111;28;20225;-78
2022/11/22 12:34:58;;;;;;;41.63;25.73;;;4.00;99.90;;;;;;5054551;28;20224;-78
2022/11/22 12:37:30;;;;;;;45.20;28.70;;;4.10;99.90;;;;;;5055162;28;20239;-78
2022/11/22 12:40:01;;;;;;;44.28;24.50;;;4.20;99.90;;;;;;5055640;28;20229;-78
2022/11/22 12:42:32;;;;;;;45.08;27.30;;;4.20;99.90;;;;;;5058257;28;20239;-79
2022/11/22 12:45:06;;;;;;;43.72;29.73;;;4.30;99.90;;;;;;5055952;28;20217;-83
2022/11/22 12:47:39;;;;;;;35.83;23.50;;;4.30;99.90;;;;;;5058663;28;20217;-84
2022/11/22 12:50:15;;;;;;;39.47;24.17;;;4.30;99.90;;;;;;5045883;28;20228;-83
2022/11/22 12:52:46;;;;;;;40.78;25.40;;;4.20;99.90;;;;;;5054252;28;20224;-84
2022/11/22 12:55:19;;;;;;;37.90;24.85;;;4.20;99.90;;;;;;5054548;28;20612;-83
2022/11/22 12:57:51;;;;;;;42.45;26.15;;;4.20;99.90;;;;;;5054282;28;20303;-77
2022/11/22 13:00:20;;;;;;;41.40;24.38;;;4.20;99.90;;;;;;5052707;28;20239;-77
2022/11/22 13:02:59;;;;;;;50.17;25.95;;;4.20;99.90;;;;;;5053086;28;20673;-77